createdAt,value
2019-05-02T00:02:29.110Z,26.60
2019-05-02T00:04:58.932Z,26.10
2019-05-02T00:07:27.599Z,26.77
2019-05-02T00:09:56.288Z,26.07
2019-05-02T00:12:25.558Z,26.63
2019-05-02T00:14:56.502Z,26.90
2019-05-02T00:17:25.980Z,28.23
2019-05-02T00:19:55.690Z,28.43
2019-05-02T00:22:24.361Z,25.63
2019-05-02T00:24:53.068Z,27.10
2019-05-02T00:27:22.063Z,30.60
2019-05-02T00:29:53.782Z,28.87
2019-05-02T00:32:22.564Z,25.03
2019-05-02T00:34:51.659Z,28.30
2019-05-02T00:37:24.708Z,27.83
2019-05-02T00:39:51.332Z,28.10
2019-05-02T00:42:22.405Z,26.05
2019-05-02T00:44:50.149Z,26.53
2019-05-02T00:47:20.311Z,27.40
2019-05-02T00:49:48.866Z,27.75
2019-05-02T00:52:17.542Z,26.37
2019-05-02T00:54:46.170Z,29.43
2019-05-02T00:57:19.432Z,26.60
2019-05-02T00:59:45.066Z,30.10
2019-05-02T01:02:15.367Z,28.27
2019-05-02T01:04:45.942Z,28.50
2019-05-02T01:07:14.729Z,27.97
2019-05-02T01:09:46.812Z,27.53
2019-05-02T01:12:25.797Z,28.17
2019-05-02T01:14:44.058Z,25.83
2019-05-02T01:17:12.697Z,27.83
2019-05-02T01:19:41.316Z,26.60
2019-05-02T01:22:10.726Z,28.03
2019-05-02T01:24:41.664Z,29.20
2019-05-02T01:27:27.131Z,28.83
2019-05-02T01:30:01.601Z,27.77
2019-05-02T01:32:37.836Z,26.70
2019-05-02T01:35:11.159Z,29.77
2019-05-02T01:37:57.927Z,28.87
2019-05-02T01:40:26.533Z,25.80
2019-05-02T01:42:57.217Z,28.03
2019-05-02T01:45:25.739Z,28.30
2019-05-02T01:47:54.335Z,27.77
2019-05-02T01:50:22.799Z,30.53
2019-05-02T01:52:53.659Z,27.50
2019-05-02T01:55:22.390Z,27.87
2019-05-02T01:57:51.123Z,29.07
2019-05-02T02:00:20.460Z,29.87
2019-05-02T02:02:49.059Z,27.47
2019-05-02T02:05:17.675Z,29.33
2019-05-02T02:07:46.339Z,30.10
2019-05-02T02:10:19.501Z,28.57
2019-05-02T02:13:02.748Z,27.10
2019-05-02T02:15:15.601Z,28.97
2019-05-02T02:17:46.767Z,29.55
2019-05-02T02:20:18.965Z,30.57
2019-05-02T02:22:49.245Z,32.33
2019-05-02T02:25:32.139Z,29.60
2019-05-02T02:28:00.921Z,31.70
2019-05-02T02:30:29.751Z,30.05
2019-05-02T02:33:00.912Z,30.73
2019-05-02T02:35:28.647Z,29.20
2019-05-02T02:37:57.154Z,30.97
2019-05-02T02:40:32.987Z,30.45
2019-05-02T02:42:56.581Z,31.83
2019-05-02T02:45:51.851Z,30.77
2019-05-02T02:48:21.429Z,30.40
2019-05-02T02:50:50.039Z,32.60
2019-05-02T02:53:30.636Z,29.77
2019-05-02T02:56:03.524Z,31.57
2019-05-02T02:58:44.579Z,30.33
2019-05-02T03:01:03.703Z,33.77
2019-05-02T03:03:35.121Z,31.60
2019-05-02T03:06:05.654Z,31.57
2019-05-02T03:08:45.111Z,30.30
2019-05-02T03:11:04.787Z,29.30
2019-05-02T03:13:51.040Z,31.90
2019-05-02T03:16:28.063Z,33.10
2019-05-02T03:18:57.473Z,32.00
2019-05-02T03:21:26.115Z,31.80
2019-05-02T03:24:03.552Z,33.60
2019-05-02T03:26:25.044Z,32.25
2019-05-02T03:28:58.430Z,33.40
2019-05-02T03:31:29.626Z,32.80
2019-05-02T03:34:00.169Z,33.35
2019-05-02T03:36:30.412Z,30.43
2019-05-02T03:38:55.770Z,32.13
2019-05-02T03:41:24.390Z,33.40
2019-05-02T03:44:09.874Z,30.67
2019-05-02T03:46:23.505Z,33.63
2019-05-02T03:48:52.152Z,33.43
2019-05-02T03:51:24.694Z,34.40
2019-05-02T03:53:51.185Z,32.67
2019-05-02T03:56:20.177Z,33.40
2019-05-02T03:58:56.016Z,35.80
2019-05-02T04:01:19.907Z,34.93
2019-05-02T04:03:48.670Z,35.53
2019-05-02T04:06:21.259Z,32.87
2019-05-02T04:08:58.664Z,33.10
2019-05-02T04:11:22.247Z,34.47
2019-05-02T04:13:52.420Z,34.37
2019-05-02T04:16:21.395Z,33.45
2019-05-02T04:18:56.090Z,34.25
2019-05-02T04:21:24.327Z,36.07
2019-05-02T04:23:52.442Z,36.37
2019-05-02T04:26:21.745Z,35.80
2019-05-02T04:28:51.867Z,33.37
2019-05-02T04:31:24.704Z,37.27
2019-05-02T04:33:51.373Z,33.97
2019-05-02T04:36:20.036Z,37.53
2019-05-02T04:38:52.198Z,38.23
2019-05-02T04:41:28.702Z,38.80
2019-05-02T04:43:56.146Z,37.07
2019-05-02T04:46:27.116Z,38.23
2019-05-02T04:48:52.812Z,36.83
2019-05-02T04:51:20.984Z,38.30
2019-05-02T04:53:50.098Z,42.53
2019-05-02T04:56:18.961Z,38.40
2019-05-02T04:58:49.364Z,39.13
2019-05-02T05:01:21.022Z,39.43
2019-05-02T05:03:58.200Z,41.40
2019-05-02T05:06:19.630Z,39.33
2019-05-02T05:08:48.510Z,39.90
2019-05-02T05:11:20.784Z,40.15
2019-05-02T05:13:48.012Z,38.40
2019-05-02T05:16:18.661Z,43.40
2019-05-02T05:18:49.293Z,41.85
2019-05-02T05:21:18.062Z,42.00
2019-05-02T05:23:59.612Z,41.37
2019-05-02T05:26:27.602Z,42.33
2019-05-02T05:28:58.387Z,41.33
2019-05-02T05:31:29.147Z,41.03
2019-05-02T05:33:57.916Z,42.57
2019-05-02T05:36:32.687Z,40.60
2019-05-02T05:38:58.285Z,43.20
2019-05-02T05:41:27.914Z,43.07
2019-05-02T05:43:58.194Z,43.20
2019-05-02T05:46:27.958Z,42.00
2019-05-02T05:48:58.340Z,43.93
2019-05-02T05:51:29.582Z,44.90
2019-05-02T05:54:02.835Z,45.70
2019-05-02T05:56:32.484Z,44.07
2019-05-02T05:58:59.503Z,43.90
2019-05-02T06:01:34.046Z,43.75
2019-05-02T06:03:58.738Z,45.10
2019-05-02T06:06:27.762Z,47.67
2019-05-02T06:08:56.272Z,45.97
2019-05-02T06:11:25.094Z,44.93
2019-05-02T06:13:53.676Z,42.77
2019-05-02T06:16:22.326Z,47.60
2019-05-02T06:18:51.014Z,45.40
2019-05-02T06:21:19.762Z,43.23
2019-05-02T06:23:48.539Z,43.33
2019-05-02T06:26:17.335Z,45.03
2019-05-02T06:28:46.121Z,45.13
2019-05-02T06:31:17.900Z,45.20
2019-05-02T06:33:46.545Z,46.20
2019-05-02T06:36:15.120Z,45.37
2019-05-02T06:38:44.479Z,47.50
2019-05-02T06:41:16.246Z,43.53
2019-05-02T06:43:46.538Z,48.03
2019-05-02T06:46:16.347Z,46.10
2019-05-02T06:48:48.146Z,46.60
2019-05-02T06:51:19.670Z,47.20
2019-05-02T06:53:46.972Z,44.53
2019-05-02T06:56:15.845Z,48.20
2019-05-02T06:58:44.480Z,48.07
2019-05-02T07:01:16.201Z,46.47
2019-05-02T07:03:46.182Z,45.77
2019-05-02T07:06:13.921Z,45.37
2019-05-02T07:08:42.903Z,46.23
2019-05-02T07:11:11.594Z,44.63
2019-05-02T07:13:42.205Z,42.60
2019-05-02T07:16:36.816Z,47.03
2019-05-02T07:18:50.309Z,44.63
2019-05-02T07:21:23.175Z,48.30
2019-05-02T07:23:53.785Z,45.00
2019-05-02T07:26:21.292Z,45.27
2019-05-02T07:28:50.357Z,43.17
2019-05-02T07:31:19.870Z,45.47
2019-05-02T07:33:48.527Z,44.07
2019-05-02T07:36:17.354Z,45.10
2019-05-02T07:38:45.921Z,43.60
2019-05-02T07:41:14.810Z,41.53
2019-05-02T07:43:43.428Z,44.60
2019-05-02T07:46:16.310Z,41.50
2019-05-02T07:48:43.724Z,43.30
2019-05-02T07:51:12.548Z,43.80
2019-05-02T07:53:44.430Z,45.00
2019-05-02T07:56:17.595Z,42.40
2019-05-02T07:58:46.997Z,40.37
2019-05-02T08:01:15.285Z,38.73
2019-05-02T08:03:44.073Z,39.23
2019-05-02T08:06:12.764Z,39.93
2019-05-02T08:08:41.421Z,40.47
2019-05-02T08:11:10.036Z,37.37
2019-05-02T08:13:41.468Z,38.07
2019-05-02T08:16:10.085Z,37.83
2019-05-02T08:18:38.694Z,34.00
2019-05-02T08:21:07.321Z,35.83
2019-05-02T08:23:35.991Z,32.30
2019-05-02T08:26:04.795Z,33.43
2019-05-02T08:28:35.061Z,32.87
2019-05-02T08:31:03.726Z,34.00
2019-05-02T08:33:34.898Z,34.70
2019-05-02T08:36:02.714Z,32.63
2019-05-02T08:38:31.401Z,31.67
2019-05-02T08:41:00.022Z,35.43
2019-05-02T08:43:28.738Z,34.33
2019-05-02T08:45:57.403Z,32.23
2019-05-02T08:48:26.422Z,32.37
2019-05-02T08:50:55.124Z,33.60
2019-05-02T08:53:23.791Z,27.87
2019-05-02T08:55:52.404Z,31.50
2019-05-02T08:58:21.175Z,30.03
2019-05-02T09:00:49.771Z,31.80
2019-05-02T09:03:18.379Z,27.77
2019-05-02T09:05:47.544Z,28.23
2019-05-02T09:08:16.758Z,30.40
2019-05-02T09:10:46.505Z,29.97
2019-05-02T09:13:23.527Z,31.87
2019-05-02T09:15:51.080Z,29.47
2019-05-02T09:18:15.986Z,28.43
2019-05-02T09:20:47.070Z,27.70
2019-05-02T09:23:15.026Z,26.47
2019-05-02T09:25:43.744Z,25.03
2019-05-02T09:28:12.653Z,26.40
2019-05-02T09:30:41.922Z,27.20
2019-05-02T09:33:11.781Z,28.90
2019-05-02T09:35:42.195Z,28.00
2019-05-02T09:38:12.948Z,28.93
2019-05-02T09:40:42.710Z,30.90
2019-05-02T09:43:12.195Z,28.90
2019-05-02T09:45:43.820Z,29.00
2019-05-02T09:48:12.630Z,28.33
2019-05-02T09:50:42.167Z,28.60
2019-05-02T09:53:13.026Z,26.20
2019-05-02T09:55:49.497Z,28.03
2019-05-02T09:58:19.067Z,27.00
2019-05-02T10:01:02.049Z,25.80
2019-05-02T10:03:31.922Z,25.03
2019-05-02T10:06:02.934Z,23.40
2019-05-02T10:08:32.109Z,27.20
2019-05-02T10:11:02.792Z,24.10
2019-05-02T10:13:33.113Z,22.73
2019-05-02T10:16:02.116Z,22.17
2019-05-02T10:18:32.930Z,24.53
2019-05-02T10:21:03.012Z,26.37
2019-05-02T10:23:32.259Z,21.23
2019-05-02T10:26:02.794Z,21.60
2019-05-02T10:28:31.777Z,21.80
2019-05-02T10:31:02.263Z,22.87
2019-05-02T10:33:33.699Z,23.23
2019-05-02T10:36:02.728Z,22.03
2019-05-02T10:38:32.538Z,21.30
2019-05-02T10:41:02.632Z,21.73
2019-05-02T10:43:33.083Z,18.57
2019-05-02T10:46:03.332Z,19.47
2019-05-02T10:48:33.371Z,17.70
2019-05-02T10:51:12.957Z,16.50
2019-05-02T10:53:42.412Z,15.97
2019-05-02T10:56:11.779Z,13.80
2019-05-02T10:58:42.548Z,13.87
2019-05-02T11:01:12.763Z,14.70
2019-05-02T11:03:47.330Z,14.00
2019-05-02T11:06:14.514Z,14.90
2019-05-02T11:08:46.020Z,14.23
2019-05-02T11:11:13.811Z,14.27
2019-05-02T11:14:00.435Z,13.37
2019-05-02T11:16:28.645Z,14.27
2019-05-02T11:19:02.498Z,12.43
2019-05-02T11:21:33.406Z,11.17
2019-05-02T11:24:02.653Z,11.47
2019-05-02T11:26:32.404Z,14.53
2019-05-02T11:29:02.948Z,14.23
2019-05-02T11:31:32.601Z,13.80
2019-05-02T11:34:01.915Z,14.97
2019-05-02T11:36:32.864Z,17.00
2019-05-02T11:39:10.312Z,17.70
2019-05-02T11:41:31.966Z,15.83
2019-05-02T11:44:02.960Z,15.70
2019-05-02T11:46:33.037Z,12.57
2019-05-02T11:49:02.397Z,12.73
2019-05-02T11:51:32.607Z,11.77
2019-05-02T11:54:05.190Z,12.73
2019-05-02T11:56:32.971Z,12.53
2019-05-02T11:59:02.842Z,12.60
2019-05-02T12:01:37.235Z,14.03
2019-05-02T12:04:03.114Z,14.80
2019-05-02T12:06:33.141Z,14.10
2019-05-02T12:09:02.531Z,14.37
2019-05-02T12:11:32.349Z,15.67
2019-05-02T12:14:01.766Z,16.40
2019-05-02T12:16:32.274Z,18.80
2019-05-02T12:19:09.389Z,14.67
2019-05-02T12:21:32.537Z,16.77
2019-05-02T12:24:02.468Z,16.57
2019-05-02T12:26:32.341Z,16.10
2019-05-02T12:29:02.565Z,15.17
2019-05-02T12:31:32.466Z,15.07
2019-05-02T12:34:03.225Z,14.30
2019-05-02T12:36:33.393Z,13.37
2019-05-02T12:39:02.669Z,14.87
2019-05-02T12:41:33.153Z,14.93
2019-05-02T12:44:02.230Z,16.90
2019-05-02T12:46:31.789Z,15.67
2019-05-02T12:49:02.630Z,14.53
2019-05-02T12:51:32.047Z,15.00
2019-05-02T12:54:02.706Z,14.47
2019-05-02T12:56:32.385Z,14.83
2019-05-02T12:59:02.437Z,15.30
2019-05-02T13:01:32.962Z,22.37
2019-05-02T13:04:04.296Z,20.50
2019-05-02T13:06:33.128Z,19.10
2019-05-02T13:09:03.157Z,19.57
2019-05-02T13:11:42.158Z,16.90
2019-05-02T13:14:16.907Z,19.33
2019-05-02T13:16:38.519Z,18.30
2019-05-02T13:19:07.505Z,17.60
2019-05-02T13:21:45.383Z,16.30
2019-05-02T13:24:18.839Z,16.70
2019-05-02T13:26:53.851Z,17.47
2019-05-02T13:29:18.339Z,16.37
2019-05-02T13:31:52.368Z,17.57
2019-05-02T13:34:25.649Z,17.77
2019-05-02T13:36:57.770Z,16.63
2019-05-02T13:39:33.216Z,17.07
2019-05-02T13:42:02.027Z,17.57
2019-05-02T13:44:32.657Z,17.03
2019-05-02T13:47:02.728Z,16.67
2019-05-02T13:49:32.416Z,16.33
2019-05-02T13:52:02.498Z,17.77
2019-05-02T13:54:33.045Z,17.83
2019-05-02T13:57:03.147Z,19.20
2019-05-02T13:59:33.772Z,18.00
2019-05-02T14:02:02.881Z,18.97
2019-05-02T14:04:32.682Z,19.30
2019-05-02T14:07:03.006Z,19.93
2019-05-02T14:09:36.171Z,17.93
2019-05-02T14:12:06.559Z,19.27
2019-05-02T14:14:35.398Z,20.67
2019-05-02T14:17:04.092Z,17.63
2019-05-02T14:19:32.799Z,17.90
2019-05-02T14:22:02.947Z,18.57
2019-05-02T14:24:43.986Z,17.13
2019-05-02T14:27:17.141Z,18.67
2019-05-02T14:29:43.205Z,18.43
2019-05-02T14:32:21.362Z,18.70
2019-05-02T14:34:50.137Z,19.37
2019-05-02T14:37:18.839Z,19.87
2019-05-02T14:39:49.109Z,18.90
2019-05-02T14:42:24.386Z,19.00
2019-05-02T14:45:05.346Z,17.73
2019-05-02T14:47:19.775Z,19.70
2019-05-02T14:49:48.520Z,18.93
2019-05-02T14:52:17.133Z,17.17
2019-05-02T14:54:48.011Z,17.87
2019-05-02T14:57:25.504Z,17.30
2019-05-02T14:59:50.359Z,16.17
2019-05-02T15:02:22.940Z,16.00
2019-05-02T15:04:52.250Z,16.47
2019-05-02T15:07:26.475Z,15.13
2019-05-02T15:09:52.663Z,17.80
2019-05-02T15:12:23.009Z,16.80
2019-05-02T15:14:58.653Z,15.73
2019-05-02T15:17:32.504Z,17.10
2019-05-02T15:19:59.868Z,17.60
2019-05-02T15:22:37.192Z,19.47
2019-05-02T15:25:07.926Z,17.03
2019-05-02T15:27:41.889Z,15.70
2019-05-02T15:30:07.368Z,16.00
2019-05-02T15:32:44.911Z,16.40
2019-05-02T15:35:12.979Z,14.30
2019-05-02T15:37:41.808Z,15.43
2019-05-02T15:42:43.569Z,15.73
2019-05-02T15:45:12.532Z,13.93
2019-05-02T15:47:41.917Z,14.27
2019-05-02T15:50:14.752Z,13.87
2019-05-02T15:52:44.385Z,14.03
2019-05-02T15:55:13.065Z,14.87
2019-05-02T15:57:45.882Z,14.77
2019-05-02T16:00:17.201Z,14.40
2019-05-02T16:02:44.332Z,14.80
2019-05-02T16:05:14.449Z,15.57
2019-05-02T16:07:46.660Z,13.90
2019-05-02T16:10:14.108Z,13.90
2019-05-02T16:12:44.684Z,13.70
2019-05-02T16:15:21.071Z,13.40
2019-05-02T16:17:43.972Z,13.50
2019-05-02T16:20:26.649Z,12.77
2019-05-02T16:22:55.312Z,13.40
2019-05-02T16:25:25.923Z,13.57
2019-05-02T16:27:57.449Z,14.63
2019-05-02T16:30:25.732Z,15.30
2019-05-02T16:32:57.406Z,14.80
2019-05-02T16:35:34.601Z,14.10
2019-05-02T16:38:04.031Z,13.40
2019-05-02T16:40:34.789Z,13.83
2019-05-02T16:43:03.423Z,12.83
2019-05-02T16:45:33.464Z,12.20
2019-05-02T16:48:03.270Z,13.80
2019-05-02T16:50:36.546Z,12.40
2019-05-02T16:53:02.473Z,11.70
2019-05-02T16:55:32.681Z,12.10
2019-05-02T16:58:07.177Z,13.13
2019-05-02T17:00:32.107Z,12.77
2019-05-02T17:03:02.062Z,12.13
2019-05-02T17:05:32.538Z,12.20
2019-05-02T17:08:10.715Z,14.23
2019-05-02T17:10:38.322Z,13.20
2019-05-02T17:13:07.628Z,12.23
2019-05-02T17:15:37.230Z,12.50
2019-05-02T17:18:12.837Z,11.90
2019-05-02T17:20:37.155Z,13.77
2019-05-02T17:23:07.483Z,12.10
2019-05-02T17:25:37.174Z,11.00
2019-05-02T17:28:10.004Z,10.67
2019-05-02T17:30:39.059Z,11.20
2019-05-02T17:33:07.205Z,11.60
2019-05-02T17:35:41.662Z,10.20
2019-05-02T17:38:07.350Z,11.83
2019-05-02T17:40:35.930Z,10.57
2019-05-02T17:43:06.881Z,12.30
2019-05-02T17:45:38.742Z,11.83
2019-05-02T17:48:08.444Z,13.00
2019-05-02T17:53:27.260Z,13.00
2019-05-02T17:55:55.938Z,12.70
2019-05-02T17:58:24.723Z,12.87
2019-05-02T18:00:57.118Z,10.90
2019-05-02T18:03:31.002Z,11.00
2019-05-02T18:05:56.000Z,11.70
2019-05-02T18:08:27.067Z,9.83
2019-05-02T18:10:59.947Z,11.63
2019-05-02T18:13:29.267Z,10.80
2019-05-02T18:15:55.713Z,10.93
2019-05-02T18:18:24.353Z,11.10
2019-05-02T18:20:53.064Z,12.23
2019-05-02T18:23:25.740Z,11.27
2019-05-02T18:25:52.659Z,11.33
2019-05-02T18:28:25.906Z,11.80
2019-05-02T18:30:52.565Z,10.43
2019-05-02T18:33:22.689Z,11.73
2019-05-02T18:35:52.650Z,11.53
2019-05-02T18:38:23.177Z,11.40
2019-05-02T18:40:53.012Z,10.80
2019-05-02T18:43:22.857Z,12.00
2019-05-02T18:45:51.961Z,13.10
2019-05-02T18:48:21.865Z,11.50
2019-05-02T18:50:52.624Z,11.90
2019-05-02T18:53:24.279Z,12.60
2019-05-02T18:55:52.126Z,11.15
2019-05-02T18:58:22.569Z,12.43
2019-05-02T19:00:51.976Z,13.00
2019-05-02T19:03:22.869Z,14.30
2019-05-02T19:05:56.681Z,11.30
2019-05-02T19:08:29.064Z,11.60
2019-05-02T19:11:05.412Z,13.50
2019-05-02T19:13:22.560Z,13.17
2019-05-02T19:15:53.291Z,13.40
2019-05-02T19:18:23.894Z,14.50
2019-05-02T19:21:02.803Z,14.37
2019-05-02T19:23:32.006Z,14.67
2019-05-02T19:26:03.748Z,13.60
2019-05-02T19:28:34.686Z,13.40
2019-05-02T19:31:06.931Z,12.93
2019-05-02T19:33:40.688Z,13.73
2019-05-02T19:36:04.731Z,13.47
2019-05-02T19:38:34.826Z,13.20
2019-05-02T19:41:08.992Z,13.57
2019-05-02T19:43:34.978Z,15.07
2019-05-02T19:46:04.641Z,15.00
2019-05-02T19:48:36.756Z,15.60
2019-05-02T19:51:12.731Z,15.27
2019-05-02T19:53:36.727Z,14.63
2019-05-02T19:56:06.733Z,15.47
2019-05-02T19:58:36.611Z,14.97
2019-05-02T20:01:06.241Z,14.50
2019-05-02T20:03:35.455Z,15.10
2019-05-02T20:06:06.251Z,14.67
2019-05-02T20:08:35.181Z,14.43
2019-05-02T20:11:03.823Z,13.93
2019-05-02T20:13:32.870Z,13.90
2019-05-02T20:16:22.472Z,14.50
2019-05-02T20:18:52.552Z,14.80
2019-05-02T20:21:27.855Z,13.90
2019-05-02T20:23:57.432Z,14.30
2019-05-02T20:26:27.594Z,14.17
2019-05-02T20:28:56.322Z,15.10
2019-05-02T20:31:25.130Z,16.40
2019-05-02T20:33:55.014Z,15.67
2019-05-02T20:36:23.720Z,16.70
2019-05-02T20:38:52.642Z,17.80
2019-05-02T20:41:22.400Z,17.17
2019-05-02T20:43:51.702Z,17.10
2019-05-02T20:46:21.832Z,16.80
2019-05-02T20:48:52.559Z,15.93
2019-05-02T20:51:22.774Z,16.70
2019-05-02T20:53:52.609Z,17.17
2019-05-02T20:56:22.956Z,16.00
2019-05-02T20:58:52.600Z,16.90
2019-05-02T21:01:21.791Z,17.93
2019-05-02T21:03:52.125Z,16.30
2019-05-02T21:06:40.676Z,18.10
2019-05-02T21:09:03.749Z,17.27
2019-05-02T21:11:32.450Z,16.77
2019-05-02T21:14:01.743Z,18.37
2019-05-02T21:16:32.265Z,17.30
2019-05-02T21:19:02.218Z,16.40
2019-05-02T21:21:32.566Z,17.70
2019-05-02T21:24:02.073Z,17.80
2019-05-02T21:26:32.855Z,19.00
2019-05-02T21:29:01.294Z,19.30
2019-05-02T21:31:31.782Z,19.50
2019-05-02T21:34:02.428Z,19.30
2019-05-02T21:36:31.974Z,17.50
2019-05-02T21:39:02.647Z,19.30
2019-05-02T21:43:59.040Z,19.13
2019-05-02T21:46:27.673Z,19.43
2019-05-02T21:48:56.336Z,20.23
2019-05-02T21:51:38.944Z,17.60
2019-05-02T21:54:18.331Z,19.03
2019-05-02T21:56:48.660Z,17.50
2019-05-02T21:59:17.256Z,17.80
2019-05-02T22:01:51.884Z,17.70
2019-05-02T22:04:22.415Z,16.40
2019-05-02T22:06:52.223Z,16.80
2019-05-02T22:09:23.191Z,17.90
2019-05-02T22:11:52.211Z,18.40
2019-05-02T22:14:22.289Z,21.90
2019-05-02T22:16:52.914Z,22.20
2019-05-02T22:19:21.765Z,21.60
2019-05-02T22:21:52.483Z,22.03
2019-05-02T22:24:21.898Z,19.40
2019-05-02T22:26:52.440Z,19.80
2019-05-02T22:29:21.874Z,20.40
2019-05-02T22:31:54.222Z,22.00
2019-05-02T22:34:22.046Z,19.50
2019-05-02T22:36:53.927Z,19.97
2019-05-02T22:39:28.927Z,19.67
2019-05-02T22:41:57.603Z,21.93
2019-05-02T22:44:26.267Z,19.73
2019-05-02T22:46:54.953Z,22.70
2019-05-02T22:49:23.622Z,19.20
2019-05-02T22:51:52.226Z,17.93
2019-05-02T22:54:29.998Z,19.70
2019-05-02T22:56:52.125Z,21.10
2019-05-02T22:59:23.756Z,15.90
2019-05-02T23:01:52.742Z,19.87
2019-05-02T23:04:23.496Z,21.60
2019-05-02T23:06:52.968Z,21.70
2019-05-02T23:09:22.773Z,22.90
2019-05-02T23:11:51.996Z,24.07
2019-05-02T23:14:22.053Z,23.40
2019-05-02T23:16:52.796Z,21.57
2019-05-02T23:19:22.958Z,22.80
2019-05-02T23:21:52.658Z,21.20
2019-05-02T23:24:36.254Z,18.43
2019-05-02T23:27:13.364Z,17.90
2019-05-02T23:29:42.544Z,20.70
2019-05-02T23:32:11.315Z,18.80
2019-05-02T23:34:41.730Z,22.30
2019-05-02T23:37:11.949Z,22.17
2019-05-02T23:39:41.785Z,21.83
2019-05-02T23:42:10.696Z,23.83
2019-05-02T23:44:39.523Z,23.50
2019-05-02T23:47:08.207Z,23.43
2019-05-02T23:49:38.413Z,26.37
2019-05-02T23:52:07.296Z,24.73
2019-05-02T23:54:48.585Z,27.17
2019-05-02T23:57:06.464Z,29.47
2019-05-02T23:59:35.100Z,31.50
